Time;durP1;ratioP1;P1;durP2;ratioP2;P2;SDS_P1;SDS_P2;PMS_P1;PMS_P2;Temp;Humidity;BMP_temperature;BMP_pressure;BME280_temperature;BME280_humidity;BME280_pressure;Samples;Min_cycle;Max_cycle;Signal;HPM_P1;HPM_P2
2023/12/22 00:03:01;;;;;;;6.27;5.27;;;4.70;66.60;;;;;;6277517;28;20230;-82
2023/12/22 00:06:04;;;;;;;5.17;4.63;;;4.50;66.50;;;;;;6288480;28;20237;-81
2023/12/22 00:09:08;;;;;;;6.03;4.43;;;4.50;66.40;;;;;;6278439;28;20240;-81
2023/12/22 00:12:12;;;;;;;10.73;4.63;;;4.50;66.00;;;;;;6287134;28;20233;-81
2023/12/22 00:15:20;;;;;;;8.67;4.80;;;4.50;65.80;;;;;;6281904;28;20849;-83
2023/12/22 00:18:25;;;;;;;5.90;4.67;;;4.50;65.80;;;;;;6276627;28;20694;-81
2023/12/22 00:21:29;;;;;;;8.73;4.57;;;4.40;65.60;;;;;;6267635;28;20713;-83
2023/12/22 00:24:32;;;;;;;9.70;5.40;;;4.40;66.00;;;;;;6277202;28;20285;-83
2023/12/22 00:27:37;;;;;;;5.70;5.20;;;4.40;65.40;;;;;;6284931;28;20233;-82
2023/12/22 00:30:40;;;;;;;9.43;4.60;;;4.40;64.80;;;;;;6284925;28;20776;-82
2023/12/22 00:33:43;;;;;;;12.60;4.97;;;4.40;64.60;;;;;;6284516;28;20234;-81
2023/12/22 00:36:47;;;;;;;8.60;5.10;;;4.40;64.40;;;;;;6289474;28;20244;-82
2023/12/22 00:39:52;;;;;;;9.87;5.17;;;4.40;64.30;;;;;;6289228;28;20225;-83
2023/12/22 00:42:59;;;;;;;13.07;5.37;;;4.50;63.90;;;;;;6290229;28;20607;-83
2023/12/22 00:46:03;;;;;;;16.80;5.80;;;4.50;64.00;;;;;;6290673;28;20326;-83
2023/12/22 00:49:06;;;;;;;13.27;5.87;;;4.50;64.20;;;;;;6288938;28;20237;-82
2023/12/22 00:52:09;;;;;;;11.83;5.53;;;4.50;64.50;;;;;;6290135;28;20233;-83
2023/12/22 00:55:12;;;;;;;10.10;5.60;;;4.50;64.40;;;;;;6289373;28;21024;-82
2023/12/22 00:58:17;;;;;;;8.57;5.30;;;4.50;64.70;;;;;;6289708;28;20846;-84
2023/12/22 01:01:21;;;;;;;11.77;5.57;;;4.50;65.00;;;;;;6285615;28;20233;-82
2023/12/22 01:04:24;;;;;;;18.33;5.43;;;4.40;65.30;;;;;;6273905;28;20346;-84
2023/12/22 01:07:27;;;;;;;13.90;6.10;;;4.40;65.90;;;;;;6295025;28;20757;-83
2023/12/22 01:10:30;;;;;;;9.83;5.20;;;4.40;65.90;;;;;;6276591;28;20230;-83
2023/12/22 01:13:35;;;;;;;14.53;5.00;;;4.40;66.30;;;;;;6281162;28;20260;-83
2023/12/22 01:16:38;;;;;;;12.30;5.10;;;4.40;66.70;;;;;;6278262;28;20234;-82
2023/12/22 01:19:41;;;;;;;9.57;5.53;;;4.40;67.30;;;;;;6273710;28;20249;-82
2023/12/22 01:22:45;;;;;;;9.40;5.23;;;4.30;67.80;;;;;;6284081;28;20303;-82
2023/12/22 01:25:48;;;;;;;7.63;4.97;;;4.20;68.20;;;;;;6281025;28;20310;-82
2023/12/22 01:28:52;;;;;;;10.43;4.93;;;4.20;68.90;;;;;;6268036;28;20226;-83
2023/12/22 01:31:56;;;;;;;10.60;5.07;;;4.20;69.10;;;;;;6282073;28;20236;-83
2023/12/22 01:35:00;;;;;;;13.97;4.93;;;4.20;69.40;;;;;;6299551;28;20320;-82
2023/12/22 01:38:04;;;;;;;13.23;5.23;;;4.20;69.20;;;;;;6279920;28;21012;-83
2023/12/22 01:41:08;;;;;;;15.43;5.00;;;4.20;69.60;;;;;;6279641;28;20241;-83
2023/12/22 01:44:13;;;;;;;10.17;4.60;;;4.20;69.40;;;;;;6286146;28;20402;-82
2023/12/22 01:47:16;;;;;;;8.73;4.80;;;4.20;69.80;;;;;;6279575;28;20244;-83
2023/12/22 01:50:19;;;;;;;8.37;5.00;;;4.20;69.80;;;;;;6280331;28;20229;-82
2023/12/22 01:53:23;;;;;;;11.17;5.23;;;4.10;69.80;;;;;;6288889;28;20248;-85
2023/12/22 01:56:27;;;;;;;7.80;4.90;;;4.20;69.90;;;;;;6288058;28;20230;-84
2023/12/22 01:59:34;;;;;;;13.73;5.47;;;4.10;69.90;;;;;;6277931;28;20233;-83
2023/12/22 02:02:38;;;;;;;10.70;5.47;;;4.10;70.20;;;;;;6287853;28;20244;-84
2023/12/22 02:05:42;;;;;;;13.77;5.90;;;4.10;70.10;;;;;;6283741;28;20309;-81
2023/12/22 02:08:47;;;;;;;12.37;5.37;;;4.10;70.10;;;;;;6286625;28;20373;-82
2023/12/22 02:11:50;;;;;;;10.03;5.07;;;4.10;70.10;;;;;;6288732;28;20225;-82
2023/12/22 02:14:55;;;;;;;9.30;5.50;;;4.00;70.30;;;;;;6279638;28;20789;-82
2023/12/22 02:18:05;;;;;;;10.90;5.17;;;4.00;70.20;;;;;;6281951;28;20295;-82
2023/12/22 02:21:09;;;;;;;10.43;4.97;;;4.00;70.30;;;;;;6275766;28;20236;-81
2023/12/22 02:24:13;;;;;;;10.20;4.90;;;4.00;70.50;;;;;;6278544;28;20257;-84
2023/12/22 02:27:29;;;;;;;10.47;4.93;;;4.00;70.60;;;;;;6278917;28;21674;-83
2023/12/22 02:30:35;;;;;;;6.73;4.63;;;3.90;70.90;;;;;;6263218;28;20994;-83
2023/12/22 02:33:42;;;;;;;12.57;5.40;;;3.90;71.00;;;;;;6275162;28;20237;-82
2023/12/22 02:36:46;;;;;;;6.83;4.43;;;3.90;71.20;;;;;;6287413;28;20237;-81
2023/12/22 02:39:53;;;;;;;7.40;4.53;;;3.90;71.10;;;;;;6282494;28;20222;-83
2023/12/22 02:42:56;;;;;;;8.40;4.77;;;3.90;71.20;;;;;;6274964;28;20316;-82
2023/12/22 02:45:59;;;;;;;11.80;5.17;;;3.80;71.50;;;;;;6282392;28;20275;-82
2023/12/22 02:49:02;;;;;;;8.23;4.40;;;3.90;71.50;;;;;;6285873;28;20244;-80
2023/12/22 02:52:06;;;;;;;8.20;4.97;;;3.90;71.50;;;;;;6285548;28;20248;-82
2023/12/22 02:55:13;;;;;;;7.27;4.60;;;3.90;71.20;;;;;;6279706;28;20240;-82
2023/12/22 02:58:18;;;;;;;9.40;5.20;;;3.90;70.80;;;;;;6276601;28;20766;-82
2023/12/22 03:01:21;;;;;;;9.07;4.60;;;3.90;70.90;;;;;;6275653;28;20233;-85
2023/12/22 03:04:24;;;;;;;8.03;4.53;;;3.80;71.00;;;;;;6286095;28;20723;-81
2023/12/22 03:07:27;;;;;;;15.17;4.90;;;3.80;71.00;;;;;;6270094;28;20727;-79
2023/12/22 03:10:32;;;;;;;8.20;4.50;;;3.70;71.20;;;;;;6278366;28;20238;-83
2023/12/22 03:13:35;;;;;;;10.17;4.77;;;3.70;71.50;;;;;;6287358;28;20268;-82
2023/12/22 03:16:38;;;;;;;4.43;4.00;;;3.60;71.70;;;;;;6278757;28;20363;-83
2023/12/22 03:19:44;;;;;;;6.50;5.00;;;3.60;71.70;;;;;;6285247;28;20241;-84
2023/12/22 03:22:47;;;;;;;6.83;4.13;;;3.70;71.30;;;;;;6277808;28;20307;-81
2023/12/22 03:25:52;;;;;;;7.07;3.80;;;3.70;71.40;;;;;;6280434;28;20678;-82
2023/12/22 03:28:55;;;;;;;7.53;4.40;;;3.70;71.40;;;;;;6272404;28;20762;-81
2023/12/22 03:31:58;;;;;;;7.60;4.07;;;3.60;71.60;;;;;;6279088;28;20324;-83
2023/12/22 03:35:01;;;;;;;6.50;4.03;;;3.60;72.00;;;;;;6283058;28;20234;-82
2023/12/22 03:38:05;;;;;;;5.43;4.20;;;3.60;71.80;;;;;;6278367;28;20839;-81
2023/12/22 03:44:26;;;;;;;11.33;5.20;;;3.60;72.00;;;;;;6282500;28;20318;-84
2023/12/22 03:47:32;;;;;;;6.67;4.80;;;3.60;72.00;;;;;;6283122;28;20238;-82
2023/12/22 03:50:36;;;;;;;7.43;5.10;;;3.60;72.20;;;;;;6282373;28;20643;-83
2023/12/22 03:53:39;;;;;;;12.17;4.90;;;3.60;72.10;;;;;;6279294;28;20255;-81
2023/12/22 03:56:44;;;;;;;6.83;4.53;;;3.60;72.30;;;;;;6278844;28;20696;-85
2023/12/22 03:59:48;;;;;;;5.27;4.20;;;3.60;72.10;;;;;;6288749;28;20233;-82
2023/12/22 04:02:51;;;;;;;6.93;4.63;;;3.70;71.80;;;;;;6284877;28;21663;-81
2023/12/22 04:05:54;;;;;;;8.00;4.97;;;3.70;71.60;;;;;;6288367;28;20229;-85
2023/12/22 04:08:57;;;;;;;7.80;3.87;;;3.70;71.70;;;;;;6292934;28;20225;-86
2023/12/22 04:12:02;;;;;;;4.00;3.50;;;3.60;72.10;;;;;;6292301;28;20268;-83
2023/12/22 04:15:07;;;;;;;4.03;3.70;;;3.60;72.30;;;;;;6293988;28;20245;-82
2023/12/22 04:18:11;;;;;;;5.17;3.33;;;3.60;72.60;;;;;;6298975;28;20294;-83
2023/12/22 04:21:14;;;;;;;3.50;3.20;;;3.70;72.70;;;;;;6294064;28;20229;-81
2023/12/22 04:24:17;;;;;;;3.60;3.30;;;3.60;73.10;;;;;;6282031;28;20270;-84
2023/12/22 04:27:22;;;;;;;5.03;3.40;;;3.60;73.50;;;;;;6283130;28;20747;-82
2023/12/22 04:30:26;;;;;;;4.40;3.90;;;3.50;74.10;;;;;;6281315;28;20257;-83
2023/12/22 04:33:35;;;;;;;4.73;3.40;;;3.40;74.60;;;;;;6282764;28;20298;-82
2023/12/22 04:36:38;;;;;;;3.80;3.57;;;3.30;75.10;;;;;;6291597;28;20314;-82
2023/12/22 04:39:42;;;;;;;4.17;3.77;;;3.30;75.20;;;;;;6285165;28;20576;-82
2023/12/22 04:42:46;;;;;;;5.70;3.40;;;3.20;75.30;;;;;;6289028;28;20312;-82
2023/12/22 04:45:49;;;;;;;4.83;3.57;;;3.20;75.50;;;;;;6283460;28;20910;-82
2023/12/22 04:48:52;;;;;;;4.07;3.63;;;3.10;75.70;;;;;;6286674;28;20336;-83
2023/12/22 04:51:56;;;;;;;4.67;3.47;;;3.20;75.90;;;;;;6283059;28;20248;-80
2023/12/22 04:55:04;;;;;;;6.93;3.30;;;3.20;75.80;;;;;;6289930;28;20324;-82
2023/12/22 04:58:09;;;;;;;4.10;3.80;;;3.30;75.60;;;;;;6288373;28;20455;-83
2023/12/22 05:01:12;;;;;;;4.70;4.00;;;3.20;75.50;;;;;;6277006;28;20307;-83
2023/12/22 05:04:17;;;;;;;4.63;3.67;;;3.20;75.90;;;;;;6280356;28;20233;-84
2023/12/22 05:07:20;;;;;;;4.10;3.23;;;3.30;76.10;;;;;;6280108;28;20767;-82
2023/12/22 05:10:23;;;;;;;3.40;3.37;;;3.10;76.70;;;;;;6287346;28;20248;-82
2023/12/22 05:13:28;;;;;;;3.37;3.17;;;3.00;77.30;;;;;;6274847;28;20256;-82
2023/12/22 05:16:31;;;;;;;3.60;3.30;;;2.90;77.60;;;;;;6286634;28;20244;-84
2023/12/22 05:19:35;;;;;;;4.20;3.50;;;2.70;78.60;;;;;;6279857;28;20331;-83
2023/12/22 05:22:38;;;;;;;3.33;3.23;;;2.70;78.70;;;;;;6287652;28;20282;-85
2023/12/22 05:25:41;;;;;;;3.30;3.20;;;2.70;78.50;;;;;;6297609;28;20271;-84
2023/12/22 05:28:46;;;;;;;3.27;3.13;;;2.60;78.00;;;;;;6286825;28;20229;-84
2023/12/22 05:31:49;;;;;;;3.17;3.10;;;2.60;78.30;;;;;;6283800;28;20258;-84
2023/12/22 05:34:53;;;;;;;4.30;3.73;;;2.50;78.50;;;;;;6279200;28;20881;-84
2023/12/22 05:37:56;;;;;;;3.60;3.30;;;2.50;78.30;;;;;;6286177;28;20298;-84
2023/12/22 05:41:03;;;;;;;3.73;3.53;;;2.50;78.70;;;;;;6272451;28;20225;-83
2023/12/22 05:44:07;;;;;;;3.60;3.40;;;2.60;78.70;;;;;;6284445;28;20661;-83
2023/12/22 05:47:10;;;;;;;3.43;3.23;;;2.60;78.70;;;;;;6285055;28;20233;-81
2023/12/22 05:50:14;;;;;;;3.53;3.30;;;2.60;78.70;;;;;;6281122;28;20282;-82
2023/12/22 05:53:17;;;;;;;3.13;3.03;;;2.50;78.50;;;;;;6283474;28;20805;-80
2023/12/22 05:56:21;;;;;;;6.60;3.60;;;2.50;78.40;;;;;;6280068;28;20326;-80
2023/12/22 05:59:27;;;;;;;3.37;3.20;;;2.60;78.30;;;;;;6285708;28;20260;-83
2023/12/22 06:02:30;;;;;;;3.57;3.37;;;2.60;78.20;;;;;;6286382;28;20241;-82
2023/12/22 06:05:34;;;;;;;3.43;3.23;;;2.50;77.80;;;;;;6286268;28;20975;-83
2023/12/22 06:08:38;;;;;;;7.90;4.13;;;2.50;77.90;;;;;;6281198;28;20239;-82
2023/12/22 06:11:41;;;;;;;6.90;3.70;;;2.50;76.60;;;;;;6278696;28;20229;-82
2023/12/22 06:14:46;;;;;;;5.53;4.10;;;2.60;75.60;;;;;;6281441;28;20502;-80
2023/12/22 06:17:49;;;;;;;4.40;4.00;;;2.80;74.50;;;;;;6281125;28;20320;-82
2023/12/22 06:20:53;;;;;;;4.97;3.63;;;2.80;74.10;;;;;;6275721;28;20404;-84
2023/12/22 06:23:56;;;;;;;4.03;3.60;;;2.70;74.20;;;;;;6295996;28;20244;-81
2023/12/22 06:26:59;;;;;;;4.83;3.63;;;2.70;73.90;;;;;;6286042;28;20229;-82
2023/12/22 06:30:05;;;;;;;3.93;3.50;;;2.70;74.00;;;;;;6274994;28;20294;-82
2023/12/22 06:33:08;;;;;;;3.40;3.13;;;2.80;73.40;;;;;;6277898;28;20248;-79
2023/12/22 06:36:19;;;;;;;4.63;3.53;;;2.80;73.30;;;;;;6274221;28;20419;-78
2023/12/22 06:39:22;;;;;;;4.43;3.97;;;2.70;73.20;;;;;;6277296;28;20253;-80
2023/12/22 06:42:25;;;;;;;3.50;3.20;;;2.80;73.20;;;;;;6278252;28;20321;-80
2023/12/22 06:45:30;;;;;;;5.97;3.50;;;2.90;73.20;;;;;;6284072;28;20350;-80
2023/12/22 06:48:33;;;;;;;3.20;3.10;;;2.90;73.60;;;;;;6286158;28;20237;-81
2023/12/22 06:51:37;;;;;;;3.47;3.27;;;2.80;74.70;;;;;;6280594;28;20241;-79
2023/12/22 06:54:40;;;;;;;5.13;3.50;;;2.70;75.80;;;;;;6276493;28;20421;-79
2023/12/22 06:57:44;;;;;;;3.20;3.10;;;2.50;76.60;;;;;;6281505;28;20363;-80
2023/12/22 07:00:50;;;;;;;5.30;3.47;;;2.30;78.00;;;;;;6265830;28;20244;-80
2023/12/22 07:03:53;;;;;;;3.67;3.53;;;2.30;78.60;;;;;;6283035;28;20326;-78
2023/12/22 07:06:56;;;;;;;4.73;3.40;;;2.30;78.60;;;;;;6279545;28;20261;-81
2023/12/22 07:09:59;;;;;;;3.50;3.30;;;2.30;78.90;;;;;;6287456;28;20316;-81
2023/12/22 07:13:02;;;;;;;3.67;3.40;;;2.30;79.30;;;;;;6288127;28;20237;-81
2023/12/22 07:16:07;;;;;;;3.83;3.57;;;2.30;79.50;;;;;;6287178;28;20248;-79
2023/12/22 07:19:10;;;;;;;4.67;4.27;;;2.40;79.50;;;;;;6287289;28;20338;-81
2023/12/22 07:22:14;;;;;;;3.40;3.30;;;2.40;79.20;;;;;;6280312;28;20264;-81
2023/12/22 07:25:19;;;;;;;6.07;4.80;;;2.50;79.20;;;;;;6288813;28;20237;-81
2023/12/22 07:28:22;;;;;;;6.03;3.30;;;2.50;78.60;;;;;;6284809;28;20918;-82
2023/12/22 07:31:27;;;;;;;7.23;4.30;;;2.50;77.70;;;;;;6285432;28;20248;-79
2023/12/22 07:34:31;;;;;;;3.97;3.73;;;2.60;77.60;;;;;;6269030;28;20246;-79
2023/12/22 07:37:37;;;;;;;6.53;4.17;;;2.70;76.70;;;;;;6281600;28;20233;-80
2023/12/22 07:40:42;;;;;;;6.23;3.60;;;2.70;76.60;;;;;;6286002;28;20318;-80
2023/12/22 07:43:45;;;;;;;4.10;3.77;;;2.80;76.10;;;;;;6278772;28;20235;-81
2023/12/22 07:46:59;;;;;;;4.07;3.27;;;2.80;75.90;;;;;;6294050;28;20830;-81
2023/12/22 07:50:08;;;;;;;3.80;3.50;;;2.80;75.50;;;;;;6287093;28;20579;-79
2023/12/22 07:53:11;;;;;;;4.00;3.70;;;2.90;75.10;;;;;;6279038;28;20313;-81
2023/12/22 07:56:14;;;;;;;4.47;3.60;;;2.90;74.80;;;;;;6276884;28;20382;-80
2023/12/22 07:59:17;;;;;;;5.27;3.93;;;3.00;74.50;;;;;;6284497;28;20237;-83
2023/12/22 08:02:49;;;;;;;6.13;4.10;;;3.00;74.00;;;;;;6261806;28;20241;-83
2023/12/22 08:05:52;;;;;;;6.00;3.53;;;3.10;73.60;;;;;;6272351;28;20283;-83
2023/12/22 08:08:55;;;;;;;8.87;3.90;;;3.10;73.20;;;;;;6275822;28;20711;-84
2023/12/22 08:11:58;;;;;;;4.60;3.87;;;3.10;72.80;;;;;;6283656;28;20296;-83
2023/12/22 08:15:02;;;;;;;4.47;3.30;;;3.10;72.70;;;;;;6288310;28;20233;-80
2023/12/22 08:18:07;;;;;;;6.57;3.77;;;3.10;72.00;;;;;;6274373;28;20233;-79
2023/12/22 08:21:10;;;;;;;3.80;3.60;;;3.10;72.10;;;;;;6282182;28;20237;-79
2023/12/22 08:24:27;;;;;;;3.30;3.00;;;3.00;72.00;;;;;;6280996;28;20270;-81
2023/12/22 08:27:30;;;;;;;3.50;3.20;;;3.00;72.10;;;;;;6288249;28;20237;-80
2023/12/22 08:30:36;;;;;;;3.87;3.40;;;3.00;72.00;;;;;;6288052;28;20307;-83
2023/12/22 08:33:43;;;;;;;8.27;3.50;;;3.00;72.70;;;;;;6287283;28;20310;-80
2023/12/22 08:36:46;;;;;;;4.27;3.27;;;3.00;73.10;;;;;;6274843;28;20237;-82
2023/12/22 08:39:52;;;;;;;3.47;3.20;;;2.90;73.30;;;;;;6286521;28;20234;-80
2023/12/22 08:42:59;;;;;;;5.03;3.87;;;2.80;73.20;;;;;;6288303;28;20317;-81
2023/12/22 08:46:03;;;;;;;4.13;3.37;;;2.80;73.20;;;;;;6288296;28;20234;-81
2023/12/22 08:49:07;;;;;;;6.67;3.70;;;2.90;73.00;;;;;;6277586;28;20296;-80
2023/12/22 08:52:10;;;;;;;8.90;3.77;;;2.80;72.80;;;;;;6278140;28;20233;-77
2023/12/22 08:55:14;;;;;;;4.47;3.83;;;2.80;72.70;;;;;;6285127;28;20233;-80
2023/12/22 08:58:17;;;;;;;3.83;3.53;;;2.80;72.90;;;;;;6284084;28;20328;-79
2023/12/22 09:01:20;;;;;;;8.87;3.83;;;2.90;72.20;;;;;;6283742;28;20777;-80
2023/12/22 09:04:25;;;;;;;6.10;3.90;;;3.00;71.60;;;;;;6280138;28;20765;-80
2023/12/22 09:07:31;;;;;;;7.10;3.67;;;3.10;71.50;;;;;;6283602;28;20259;-80
2023/12/22 09:10:38;;;;;;;4.57;4.17;;;3.10;71.70;;;;;;6285758;28;20254;-80
2023/12/22 09:13:41;;;;;;;6.63;4.40;;;3.10;71.50;;;;;;6285440;28;20255;-84
2023/12/22 09:16:45;;;;;;;7.50;4.60;;;3.10;71.30;;;;;;6284034;28;20709;-79
2023/12/22 09:19:50;;;;;;;9.50;4.23;;;3.10;70.80;;;;;;6281893;28;20839;-80
2023/12/22 09:22:53;;;;;;;8.33;4.30;;;3.20;71.10;;;;;;6282325;28;20242;-77
2023/12/22 09:25:58;;;;;;;7.00;4.00;;;3.30;70.40;;;;;;6271855;28;20238;-81
2023/12/22 09:29:01;;;;;;;9.33;4.10;;;3.30;70.30;;;;;;6269446;28;20225;-80
2023/12/22 09:32:05;;;;;;;8.87;4.23;;;3.50;69.70;;;;;;6252614;28;20784;-81
2023/12/22 09:35:10;;;;;;;8.80;4.40;;;3.50;69.40;;;;;;6275887;28;20237;-79
2023/12/22 09:38:13;;;;;;;8.77;4.40;;;3.60;68.60;;;;;;6279791;28;20394;-80
2023/12/22 09:41:16;;;;;;;4.13;3.80;;;3.60;68.50;;;;;;6277772;28;20241;-79
2023/12/22 09:44:21;;;;;;;11.40;4.43;;;3.60;67.90;;;;;;6287254;28;20240;-80
2023/12/22 09:47:29;;;;;;;8.20;3.97;;;3.70;67.80;;;;;;6280619;28;20260;-80
2023/12/22 09:50:37;;;;;;;7.50;4.17;;;3.70;67.20;;;;;;6281405;28;20241;-80
2023/12/22 09:53:41;;;;;;;12.93;5.27;;;3.70;67.50;;;;;;6268321;28;20253;-81
2023/12/22 09:56:47;;;;;;;8.33;4.67;;;3.70;67.20;;;;;;6283561;28;20324;-80
2023/12/22 09:59:53;;;;;;;10.60;4.63;;;3.70;67.30;;;;;;6279370;28;20348;-78
2023/12/22 10:02:56;;;;;;;6.10;4.13;;;3.70;67.60;;;;;;6282808;28;20268;-80
2023/12/22 10:06:01;;;;;;;12.20;4.33;;;3.80;67.50;;;;;;6284106;28;20233;-79
2023/12/22 10:09:07;;;;;;;9.13;5.07;;;3.90;67.30;;;;;;6284045;28;20754;-80
2023/12/22 10:12:12;;;;;;;9.77;4.10;;;3.90;67.10;;;;;;6287232;28;20294;-82
2023/12/22 10:15:18;;;;;;;7.93;4.47;;;3.90;67.20;;;;;;6284460;28;20293;-80
2023/12/22 10:18:21;;;;;;;8.33;4.83;;;3.90;67.30;;;;;;6266198;28;20233;-80
2023/12/22 10:21:26;;;;;;;9.80;5.20;;;3.80;67.20;;;;;;6282022;28;20743;-82
2023/12/22 10:24:42;;;;;;;5.80;4.90;;;3.90;67.10;;;;;;6279720;28;20290;-80
2023/12/22 10:27:45;;;;;;;12.70;5.20;;;3.90;66.40;;;;;;6278798;28;20237;-81
2023/12/22 10:30:49;;;;;;;11.67;5.33;;;3.90;66.60;;;;;;6283119;28;20732;-79
2023/12/22 10:33:52;;;;;;;14.37;4.83;;;4.10;66.20;;;;;;6282730;28;20316;-79
2023/12/22 10:36:57;;;;;;;8.53;4.60;;;4.20;65.50;;;;;;6289673;28;20726;-80
2023/12/22 10:40:00;;;;;;;12.53;4.90;;;4.20;65.50;;;;;;6281649;28;20320;-80
2023/12/22 10:43:03;;;;;;;17.40;5.17;;;4.30;65.00;;;;;;6288636;28;20256;-80
2023/12/22 10:46:07;;;;;;;12.20;4.60;;;4.30;65.20;;;;;;6282658;28;20294;-79
2023/12/22 10:49:10;;;;;;;13.23;5.87;;;4.30;64.70;;;;;;6288711;28;20274;-81
2023/12/22 10:52:18;;;;;;;14.20;5.33;;;4.40;64.70;;;;;;6281768;28;20240;-81
2023/12/22 10:55:24;;;;;;;8.67;5.10;;;4.40;64.90;;;;;;6277520;28;20233;-79
2023/12/22 10:58:30;;;;;;;10.93;5.10;;;4.40;64.20;;;;;;6291139;28;20241;-78
2023/12/22 11:01:34;;;;;;;10.03;4.53;;;4.50;64.80;;;;;;6289816;28;20344;-78
2023/12/22 11:04:39;;;;;;;7.87;4.30;;;4.70;64.20;;;;;;6290041;28;20247;-81
2023/12/22 11:07:49;;;;;;;8.07;4.30;;;4.70;63.70;;;;;;6287180;28;20229;-80
2023/12/22 11:10:57;;;;;;;9.37;4.10;;;4.70;63.60;;;;;;6277926;28;20409;-79
2023/12/22 11:14:02;;;;;;;7.57;4.60;;;4.80;63.70;;;;;;6279755;28;20268;-78
2023/12/22 11:17:06;;;;;;;7.03;4.83;;;4.70;63.10;;;;;;6286964;28;20545;-79
2023/12/22 11:20:11;;;;;;;5.10;4.37;;;4.60;62.90;;;;;;6280976;28;20237;-79
2023/12/22 11:23:18;;;;;;;8.77;4.23;;;4.60;62.90;;;;;;6291119;28;20240;-79
2023/12/22 11:26:23;;;;;;;10.10;4.67;;;4.50;63.10;;;;;;6284172;28;20302;-81
2023/12/22 11:29:27;;;;;;;9.67;4.47;;;4.50;63.30;;;;;;6285024;28;20241;-78
2023/12/22 11:32:30;;;;;;;8.87;5.40;;;4.60;63.20;;;;;;6277759;28;20297;-82
2023/12/22 11:35:35;;;;;;;15.90;6.70;;;4.70;63.30;;;;;;6278010;28;20237;-81
2023/12/22 11:38:41;;;;;;;22.83;9.70;;;4.70;63.10;;;;;;6287638;28;20229;-79
2023/12/22 11:41:45;;;;;;;8.93;4.63;;;4.80;62.90;;;;;;6287878;28;20264;-80
2023/12/22 11:44:48;;;;;;;7.43;4.60;;;4.80;61.90;;;;;;6293165;28;20587;-78
2023/12/22 11:47:51;;;;;;;6.10;4.37;;;4.70;62.30;;;;;;6282683;28;20347;-79
2023/12/22 11:50:56;;;;;;;8.67;4.03;;;4.70;62.00;;;;;;6281464;28;20237;-79
2023/12/22 11:54:01;;;;;;;6.30;3.80;;;4.70;61.90;;;;;;6276281;28;20234;-79
2023/12/22 11:57:04;;;;;;;11.90;4.27;;;4.80;61.70;;;;;;6282837;28;20279;-78
2023/12/22 12:00:10;;;;;;;9.93;4.30;;;4.70;62.40;;;;;;6274270;28;20324;-80
2023/12/22 12:03:14;;;;;;;8.67;3.90;;;4.70;63.30;;;;;;6284874;28;20229;-80
2023/12/22 12:06:32;;;;;;;9.07;4.33;;;4.70;63.50;;;;;;6288756;28;20322;-79
2023/12/22 12:09:47;;;;;;;8.80;4.60;;;4.70;64.10;;;;;;6279135;28;20222;-80
2023/12/22 12:13:05;;;;;;;4.43;3.93;;;4.80;64.10;;;;;;6283887;28;20256;-80
2023/12/22 12:16:09;;;;;;;5.30;4.50;;;4.70;63.80;;;;;;6285603;28;20287;-77
2023/12/22 12:19:12;;;;;;;7.43;4.20;;;4.70;64.20;;;;;;6287100;28;20813;-80
2023/12/22 12:22:15;;;;;;;9.67;4.63;;;4.70;64.10;;;;;;6289315;28;20229;-80
2023/12/22 12:25:24;;;;;;;6.30;4.37;;;4.70;63.70;;;;;;6279582;28;20320;-81
2023/12/22 12:28:36;;;;;;;4.57;4.17;;;4.70;63.50;;;;;;6284300;28;20230;-80
2023/12/22 12:31:42;;;;;;;9.30;4.50;;;4.60;63.60;;;;;;6287073;28;20320;-80
2023/12/22 12:34:46;;;;;;;7.07;4.07;;;4.60;63.80;;;;;;6281621;28;20237;-79
2023/12/22 12:37:52;;;;;;;9.67;4.40;;;4.60;64.20;;;;;;6283129;28;21233;-80
2023/12/22 12:40:58;;;;;;;10.37;4.97;;;4.50;64.50;;;;;;6280517;28;20230;-79
2023/12/22 12:44:04;;;;;;;6.57;4.20;;;4.50;64.70;;;;;;6282783;28;20346;-80
2023/12/22 12:47:13;;;;;;;8.03;4.43;;;4.50;64.70;;;;;;6268395;28;20739;-78
2023/12/22 12:50:22;;;;;;;8.57;5.40;;;4.50;64.30;;;;;;6287436;28;20279;-80
2023/12/22 12:53:26;;;;;;;11.03;4.83;;;4.40;64.60;;;;;;6283002;28;20619;-79
2023/12/22 12:56:30;;;;;;;8.10;4.30;;;4.40;64.60;;;;;;6278463;28;20316;-79
2023/12/22 12:59:36;;;;;;;11.13;4.33;;;4.40;64.90;;;;;;6286300;28;20234;-80
2023/12/22 13:02:39;;;;;;;13.80;4.73;;;4.50;65.10;;;;;;6284372;28;20328;-77
2023/12/22 13:05:42;;;;;;;8.23;3.97;;;4.50;65.10;;;;;;6285436;28;20233;-79
2023/12/22 13:08:49;;;;;;;6.87;4.13;;;4.50;65.30;;;;;;6284564;28;20224;-80
2023/12/22 13:11:53;;;;;;;12.70;4.67;;;4.50;65.50;;;;;;6286660;28;20232;-79
2023/12/22 13:15:02;;;;;;;13.13;4.57;;;4.50;66.00;;;;;;6284685;28;21005;-79
2023/12/22 13:18:06;;;;;;;11.40;4.20;;;4.50;65.60;;;;;;6287448;28;20240;-80
2023/12/22 13:21:09;;;;;;;7.80;4.57;;;4.50;65.80;;;;;;6287439;28;20241;-80
2023/12/22 13:24:14;;;;;;;9.73;4.83;;;4.50;65.00;;;;;;6257373;28;20736;-80
2023/12/22 13:27:18;;;;;;;7.93;4.63;;;4.50;64.80;;;;;;6287628;28;20304;-81
2023/12/22 13:30:34;;;;;;;9.30;4.53;;;4.50;65.00;;;;;;6281168;28;20281;-79
2023/12/22 13:33:37;;;;;;;10.47;4.47;;;4.50;64.60;;;;;;6279598;28;20709;-80
2023/12/22 13:36:41;;;;;;;8.67;4.37;;;4.50;64.60;;;;;;6283504;28;20233;-79
2023/12/22 13:39:45;;;;;;;5.53;3.90;;;4.50;64.30;;;;;;6285701;28;20233;-80
2023/12/22 13:42:57;;;;;;;11.07;5.60;;;4.40;64.50;;;;;;6280329;28;20248;-81
2023/12/22 13:46:00;;;;;;;13.50;5.10;;;4.40;64.50;;;;;;6285825;28;20245;-80
2023/12/22 13:49:04;;;;;;;9.30;4.60;;;4.50;64.50;;;;;;6285875;28;20223;-80
2023/12/22 13:52:07;;;;;;;12.10;4.93;;;4.50;64.50;;;;;;6279390;28;20233;-78
2023/12/22 13:55:12;;;;;;;6.57;4.53;;;4.50;64.50;;;;;;6278322;28;20245;-80
2023/12/22 13:58:17;;;;;;;11.47;4.93;;;4.50;64.60;;;;;;6284921;28;20233;-80
2023/12/22 14:01:20;;;;;;;8.47;4.60;;;4.40;64.70;;;;;;6280982;28;20233;-80
2023/12/22 14:04:23;;;;;;;7.80;4.30;;;4.40;64.70;;;;;;6278882;28;20618;-78
2023/12/22 14:07:27;;;;;;;12.43;5.20;;;4.40;64.80;;;;;;6279466;28;20241;-80
2023/12/22 14:10:31;;;;;;;8.70;4.53;;;4.40;64.70;;;;;;6275893;28;20605;-81
2023/12/22 14:13:39;;;;;;;8.27;4.90;;;4.30;64.80;;;;;;6284817;28;20241;-81
2023/12/22 14:16:44;;;;;;;7.93;4.73;;;4.30;65.10;;;;;;6274789;28;20256;-80
2023/12/22 14:19:49;;;;;;;4.30;3.97;;;4.20;65.60;;;;;;6282795;28;20637;-79
2023/12/22 14:22:52;;;;;;;10.63;5.13;;;4.20;66.20;;;;;;6282024;28;20238;-81
2023/12/22 14:25:55;;;;;;;6.47;3.87;;;4.20;66.50;;;;;;6287301;28;20245;-80
2023/12/22 14:29:00;;;;;;;8.73;4.30;;;4.10;66.90;;;;;;6283628;28;20293;-79
2023/12/22 14:32:04;;;;;;;4.40;4.00;;;4.00;67.50;;;;;;6273617;28;20237;-80
2023/12/22 14:35:08;;;;;;;6.23;4.80;;;4.00;68.40;;;;;;6281723;28;20233;-79
2023/12/22 14:38:11;;;;;;;3.93;3.57;;;3.80;68.80;;;;;;6285172;28;20238;-81
2023/12/22 14:41:14;;;;;;;4.37;4.13;;;3.70;69.30;;;;;;6284057;28;20240;-81
2023/12/22 14:44:22;;;;;;;7.70;4.00;;;3.60;69.20;;;;;;6283112;28;21605;-80
2023/12/22 14:47:26;;;;;;;4.03;3.73;;;3.70;68.90;;;;;;6285712;28;20234;-81
2023/12/22 14:50:31;;;;;;;4.53;3.97;;;3.60;68.70;;;;;;6284898;28;20238;-79
2023/12/22 14:53:34;;;;;;;4.87;3.90;;;3.50;68.60;;;;;;6282657;28;20255;-80
2023/12/22 14:56:40;;;;;;;4.30;3.60;;;3.50;68.50;;;;;;6272930;28;20750;-81
2023/12/22 14:59:46;;;;;;;8.03;3.87;;;3.40;68.70;;;;;;6284261;28;20257;-80
2023/12/22 15:02:50;;;;;;;7.07;3.90;;;3.30;68.50;;;;;;6296759;28;20252;-76
2023/12/22 15:05:54;;;;;;;4.57;4.17;;;3.30;68.50;;;;;;6294392;28;20244;-81
2023/12/22 15:08:59;;;;;;;4.23;3.90;;;3.30;68.40;;;;;;6277596;28;20367;-79
2023/12/22 15:12:02;;;;;;;4.53;4.10;;;3.30;68.00;;;;;;6289244;28;20225;-80
2023/12/22 15:15:08;;;;;;;17.77;4.30;;;3.40;67.80;;;;;;6277885;28;20248;-79
2023/12/22 15:18:12;;;;;;;12.63;4.17;;;3.40;67.80;;;;;;6282702;28;20316;-80
2023/12/22 15:21:20;;;;;;;7.93;4.33;;;3.30;68.10;;;;;;6286051;28;20233;-83
2023/12/22 15:24:26;;;;;;;6.73;4.37;;;3.30;68.30;;;;;;6276285;28;20240;-79
2023/12/22 15:27:30;;;;;;;7.00;4.40;;;3.30;68.70;;;;;;6280069;28;20645;-77
2023/12/22 15:30:34;;;;;;;8.10;4.37;;;3.30;68.60;;;;;;6281578;28;20843;-79
2023/12/22 15:33:37;;;;;;;8.53;4.27;;;3.30;68.80;;;;;;6287472;28;20905;-80
2023/12/22 15:36:40;;;;;;;7.53;3.90;;;3.40;68.90;;;;;;6281243;28;20237;-80
2023/12/22 15:39:44;;;;;;;4.40;3.90;;;3.40;69.10;;;;;;6287743;28;20936;-78
2023/12/22 15:42:47;;;;;;;6.50;4.10;;;3.30;69.40;;;;;;6289432;28;20303;-79
2023/12/22 15:45:52;;;;;;;5.80;4.27;;;3.30;69.70;;;;;;6277205;28;20233;-81
2023/12/22 15:48:55;;;;;;;7.77;4.93;;;3.30;69.80;;;;;;6289246;28;20328;-77
2023/12/22 15:51:58;;;;;;;5.93;4.13;;;3.30;70.10;;;;;;6279025;28;20237;-78
2023/12/22 15:55:01;;;;;;;10.00;4.23;;;3.30;70.40;;;;;;6283374;28;20741;-80
2023/12/22 15:58:04;;;;;;;8.73;4.53;;;3.40;70.50;;;;;;6276642;28;20801;-79
2023/12/22 16:01:11;;;;;;;5.47;4.10;;;3.30;70.80;;;;;;6279724;28;20259;-78
2023/12/22 16:04:14;;;;;;;9.87;4.77;;;3.30;71.10;;;;;;6277153;28;20226;-80
2023/12/22 16:07:17;;;;;;;5.30;4.90;;;3.30;71.00;;;;;;6267723;28;20261;-81
2023/12/22 16:10:20;;;;;;;7.50;4.23;;;3.30;71.40;;;;;;6286393;28;20229;-80
2023/12/22 16:13:24;;;;;;;5.00;4.50;;;3.30;71.20;;;;;;6282841;28;20240;-81
2023/12/22 16:16:31;;;;;;;9.40;4.70;;;3.30;71.20;;;;;;6278909;28;20945;-81